<?xml version="1.0" encoding="UTF-8" standalone="no" ?>
<gpx xmlns="http://www.topografix.com/GPX/1/1" xmlns:xsi="http://www.w3.org/2001/XMLSchema-instance" xsi:schemaLocation="http://www.topografix.com/GPX/1/1 http://www.topografix.com/GPX/1/1/gpx.xsd" version="1.1" creator="VisuGPX - https://www.visugpx.com">
  <metadata>
    <name>BoissièreEvre_Montrevault18km</name>
  </metadata>
  <trk>
    <name><![CDATA[La Boissière sur Evre 2023 prépa-10795186]]></name>
    <extensions>
      <line xmlns="http://www.topografix.com/GPX/gpx_style/0/2">
        <color>FF0000</color>
        <width>4</width>
      </line>
    </extensions>
    <trkseg>
      <trkpt lat="47.30101" lon="-1.07996">
        <ele>77</ele>
        <time>2024-05-14T11:48:33Z</time>
      </trkpt>
      <trkpt lat="47.30106" lon="-1.07951">
        <ele>77</ele>
        <time>2024-05-14T11:49:14Z</time>
      </trkpt>
      <trkpt lat="47.30101" lon="-1.07935">
        <ele>77</ele>
        <time>2024-05-14T11:49:30Z</time>
      </trkpt>
      <trkpt lat="47.30061" lon="-1.07917">
        <ele>76</ele>
        <time>2024-05-14T11:50:26Z</time>
      </trkpt>
      <trkpt lat="47.30048" lon="-1.07888">
        <ele>76</ele>
        <time>2024-05-14T11:50:57Z</time>
      </trkpt>
      <trkpt lat="47.3003" lon="-1.07827">
        <ele>76</ele>
        <time>2024-05-14T11:51:58Z</time>
      </trkpt>
      <trkpt lat="47.3002" lon="-1.07805">
        <ele>76</ele>
        <time>2024-05-14T11:52:22Z</time>
      </trkpt>
      <trkpt lat="47.30012" lon="-1.07794">
        <ele>76</ele>
        <time>2024-05-14T11:52:36Z</time>
      </trkpt>
      <trkpt lat="47.30009" lon="-1.07767">
        <ele>75</ele>
        <time>2024-05-14T11:53:01Z</time>
      </trkpt>
      <trkpt lat="47.29935" lon="-1.07762">
        <ele>73</ele>
        <time>2024-05-14T11:54:40Z</time>
      </trkpt>
      <trkpt lat="47.29953" lon="-1.07667">
        <ele>73</ele>
        <time>2024-05-14T11:56:09Z</time>
      </trkpt>
      <trkpt lat="47.29958" lon="-1.07619">
        <ele>70</ele>
        <time>2024-05-14T11:56:53Z</time>
      </trkpt>
      <trkpt lat="47.2995" lon="-1.07594">
        <ele>68</ele>
        <time>2024-05-14T11:57:18Z</time>
      </trkpt>
      <trkpt lat="47.29927" lon="-1.07547">
        <ele>64</ele>
        <time>2024-05-14T11:58:11Z</time>
      </trkpt>
      <trkpt lat="47.29861" lon="-1.07432">
        <ele>53</ele>
        <time>2024-05-14T12:00:27Z</time>
      </trkpt>
      <trkpt lat="47.29834" lon="-1.07413">
        <ele>52</ele>
        <time>2024-05-14T12:01:07Z</time>
      </trkpt>
      <trkpt lat="47.29815" lon="-1.07346">
        <ele>45</ele>
        <time>2024-05-14T12:02:13Z</time>
      </trkpt>
      <trkpt lat="47.29792" lon="-1.07312">
        <ele>44</ele>
        <time>2024-05-14T12:02:56Z</time>
      </trkpt>
      <trkpt lat="47.29768" lon="-1.07218">
        <ele>42</ele>
        <time>2024-05-14T12:04:27Z</time>
      </trkpt>
      <trkpt lat="47.29749" lon="-1.07124">
        <ele>40</ele>
        <time>2024-05-14T12:05:56Z</time>
      </trkpt>
      <trkpt lat="47.29746" lon="-1.07073">
        <ele>37</ele>
        <time>2024-05-14T12:06:42Z</time>
      </trkpt>
      <trkpt lat="47.29707" lon="-1.06927">
        <ele>27</ele>
        <time>2024-05-14T12:09:04Z</time>
      </trkpt>
      <trkpt lat="47.29696" lon="-1.06919">
        <ele>26</ele>
        <time>2024-05-14T12:09:20Z</time>
      </trkpt>
      <trkpt lat="47.29675" lon="-1.06897">
        <ele>25</ele>
        <time>2024-05-14T12:09:55Z</time>
      </trkpt>
      <trkpt lat="47.29639" lon="-1.06876">
        <ele>25</ele>
        <time>2024-05-14T12:10:46Z</time>
      </trkpt>
      <trkpt lat="47.29622" lon="-1.06872">
        <ele>26</ele>
        <time>2024-05-14T12:11:09Z</time>
      </trkpt>
      <trkpt lat="47.29602" lon="-1.06856">
        <ele>28</ele>
        <time>2024-05-14T12:11:40Z</time>
      </trkpt>
      <trkpt lat="47.29595" lon="-1.06806">
        <ele>31</ele>
        <time>2024-05-14T12:12:26Z</time>
      </trkpt>
      <trkpt lat="47.2958" lon="-1.06761">
        <ele>36</ele>
        <time>2024-05-14T12:13:11Z</time>
      </trkpt>
      <trkpt lat="47.2957" lon="-1.06718">
        <ele>37</ele>
        <time>2024-05-14T12:13:52Z</time>
      </trkpt>
      <trkpt lat="47.29558" lon="-1.06713">
        <ele>37</ele>
        <time>2024-05-14T12:14:09Z</time>
      </trkpt>
      <trkpt lat="47.29551" lon="-1.06706">
        <ele>37</ele>
        <time>2024-05-14T12:14:20Z</time>
      </trkpt>
      <trkpt lat="47.29514" lon="-1.06722">
        <ele>40</ele>
        <time>2024-05-14T12:15:12Z</time>
      </trkpt>
      <trkpt lat="47.29496" lon="-1.06741">
        <ele>43</ele>
        <time>2024-05-14T12:15:41Z</time>
      </trkpt>
      <trkpt lat="47.29465" lon="-1.068">
        <ele>44</ele>
        <time>2024-05-14T12:16:49Z</time>
      </trkpt>
      <trkpt lat="47.29445" lon="-1.06848">
        <ele>46</ele>
        <time>2024-05-14T12:17:40Z</time>
      </trkpt>
      <trkpt lat="47.29428" lon="-1.06857">
        <ele>48</ele>
        <time>2024-05-14T12:18:04Z</time>
      </trkpt>
      <trkpt lat="47.29399" lon="-1.06864">
        <ele>48</ele>
        <time>2024-05-14T12:18:43Z</time>
      </trkpt>
      <trkpt lat="47.29358" lon="-1.06837">
        <ele>47</ele>
        <time>2024-05-14T12:19:43Z</time>
      </trkpt>
      <trkpt lat="47.29274" lon="-1.068">
        <ele>46</ele>
        <time>2024-05-14T12:21:40Z</time>
      </trkpt>
      <trkpt lat="47.29202" lon="-1.06744">
        <ele>43</ele>
        <time>2024-05-14T12:23:29Z</time>
      </trkpt>
      <trkpt lat="47.29122" lon="-1.06696">
        <ele>37</ele>
        <time>2024-05-14T12:25:24Z</time>
      </trkpt>
      <trkpt lat="47.29074" lon="-1.06695">
        <ele>34</ele>
        <time>2024-05-14T12:26:28Z</time>
      </trkpt>
      <trkpt lat="47.29042" lon="-1.06678">
        <ele>33</ele>
        <time>2024-05-14T12:27:14Z</time>
      </trkpt>
      <trkpt lat="47.29022" lon="-1.06653">
        <ele>33</ele>
        <time>2024-05-14T12:27:49Z</time>
      </trkpt>
      <trkpt lat="47.28988" lon="-1.06638">
        <ele>33</ele>
        <time>2024-05-14T12:28:36Z</time>
      </trkpt>
      <trkpt lat="47.28946" lon="-1.06595">
        <ele>35</ele>
        <time>2024-05-14T12:29:44Z</time>
      </trkpt>
      <trkpt lat="47.28914" lon="-1.06428">
        <ele>39</ele>
        <time>2024-05-14T12:32:21Z</time>
      </trkpt>
      <trkpt lat="47.28892" lon="-1.06426">
        <ele>38</ele>
        <time>2024-05-14T12:32:51Z</time>
      </trkpt>
      <trkpt lat="47.28876" lon="-1.06356">
        <ele>38</ele>
        <time>2024-05-14T12:33:57Z</time>
      </trkpt>
      <trkpt lat="47.28874" lon="-1.0633">
        <ele>37</ele>
        <time>2024-05-14T12:34:21Z</time>
      </trkpt>
      <trkpt lat="47.28847" lon="-1.06281">
        <ele>33</ele>
        <time>2024-05-14T12:35:18Z</time>
      </trkpt>
      <trkpt lat="47.28782" lon="-1.06214">
        <ele>35</ele>
        <time>2024-05-14T12:37:04Z</time>
      </trkpt>
      <trkpt lat="47.28757" lon="-1.06112">
        <ele>26</ele>
        <time>2024-05-14T12:38:42Z</time>
      </trkpt>
      <trkpt lat="47.2877" lon="-1.05954">
        <ele>23</ele>
        <time>2024-05-14T12:41:06Z</time>
      </trkpt>
      <trkpt lat="47.2876" lon="-1.05883">
        <ele>24</ele>
        <time>2024-05-14T12:42:12Z</time>
      </trkpt>
      <trkpt lat="47.28665" lon="-1.05788">
        <ele>24</ele>
        <time>2024-05-14T12:44:45Z</time>
      </trkpt>
      <trkpt lat="47.28558" lon="-1.05731">
        <ele>24</ele>
        <time>2024-05-14T12:47:17Z</time>
      </trkpt>
      <trkpt lat="47.28408" lon="-1.05784">
        <ele>31</ele>
        <time>2024-05-14T12:50:43Z</time>
      </trkpt>
      <trkpt lat="47.28347" lon="-1.05814">
        <ele>33</ele>
        <time>2024-05-14T12:52:09Z</time>
      </trkpt>
      <trkpt lat="47.28335" lon="-1.05887">
        <ele>39</ele>
        <time>2024-05-14T12:53:17Z</time>
      </trkpt>
      <trkpt lat="47.28377" lon="-1.05964">
        <ele>48</ele>
        <time>2024-05-14T12:54:46Z</time>
      </trkpt>
      <trkpt lat="47.28425" lon="-1.06027">
        <ele>54</ele>
        <time>2024-05-14T12:56:12Z</time>
      </trkpt>
      <trkpt lat="47.28451" lon="-1.06091">
        <ele>58</ele>
        <time>2024-05-14T12:57:19Z</time>
      </trkpt>
      <trkpt lat="47.28428" lon="-1.06113">
        <ele>59</ele>
        <time>2024-05-14T12:57:56Z</time>
      </trkpt>
      <trkpt lat="47.28383" lon="-1.06131">
        <ele>61</ele>
        <time>2024-05-14T12:58:58Z</time>
      </trkpt>
      <trkpt lat="47.28349" lon="-1.0614">
        <ele>62</ele>
        <time>2024-05-14T12:59:44Z</time>
      </trkpt>
      <trkpt lat="47.28316" lon="-1.06264">
        <ele>68</ele>
        <time>2024-05-14T13:01:45Z</time>
      </trkpt>
      <trkpt lat="47.28299" lon="-1.06385">
        <ele>72</ele>
        <time>2024-05-14T13:03:37Z</time>
      </trkpt>
      <trkpt lat="47.28302" lon="-1.06474">
        <ele>76</ele>
        <time>2024-05-14T13:04:57Z</time>
      </trkpt>
      <trkpt lat="47.28314" lon="-1.06565">
        <ele>78</ele>
        <time>2024-05-14T13:06:21Z</time>
      </trkpt>
      <trkpt lat="47.2832" lon="-1.06653">
        <ele>80</ele>
        <time>2024-05-14T13:07:41Z</time>
      </trkpt>
      <trkpt lat="47.28298" lon="-1.06739">
        <ele>79</ele>
        <time>2024-05-14T13:09:05Z</time>
      </trkpt>
      <trkpt lat="47.28311" lon="-1.06819">
        <ele>77</ele>
        <time>2024-05-14T13:10:19Z</time>
      </trkpt>
      <trkpt lat="47.28323" lon="-1.06922">
        <ele>75</ele>
        <time>2024-05-14T13:11:54Z</time>
      </trkpt>
      <trkpt lat="47.28259" lon="-1.06991">
        <ele>78</ele>
        <time>2024-05-14T13:13:40Z</time>
      </trkpt>
      <trkpt lat="47.28186" lon="-1.07075">
        <ele>81</ele>
        <time>2024-05-14T13:15:43Z</time>
      </trkpt>
      <trkpt lat="47.28114" lon="-1.0717">
        <ele>81</ele>
        <time>2024-05-14T13:17:52Z</time>
      </trkpt>
      <trkpt lat="47.28041" lon="-1.07237">
        <ele>82</ele>
        <time>2024-05-14T13:19:47Z</time>
      </trkpt>
      <trkpt lat="47.27948" lon="-1.07291">
        <ele>81</ele>
        <time>2024-05-14T13:22:00Z</time>
      </trkpt>
      <trkpt lat="47.2778" lon="-1.06973">
        <ele>71</ele>
        <time>2024-05-14T13:28:05Z</time>
      </trkpt>
      <trkpt lat="47.27767" lon="-1.06921">
        <ele>69</ele>
        <time>2024-05-14T13:28:55Z</time>
      </trkpt>
      <trkpt lat="47.27716" lon="-1.06875">
        <ele>64</ele>
        <time>2024-05-14T13:30:15Z</time>
      </trkpt>
      <trkpt lat="47.27698" lon="-1.06871">
        <ele>62</ele>
        <time>2024-05-14T13:30:39Z</time>
      </trkpt>
      <trkpt lat="47.27628" lon="-1.06873">
        <ele>58</ele>
        <time>2024-05-14T13:32:13Z</time>
      </trkpt>
      <trkpt lat="47.27561" lon="-1.06807">
        <ele>61</ele>
        <time>2024-05-14T13:34:00Z</time>
      </trkpt>
      <trkpt lat="47.27445" lon="-1.06629">
        <ele>72</ele>
        <time>2024-05-14T13:37:44Z</time>
      </trkpt>
      <trkpt lat="47.27405" lon="-1.06509">
        <ele>72</ele>
        <time>2024-05-14T13:39:45Z</time>
      </trkpt>
      <trkpt lat="47.27391" lon="-1.0642">
        <ele>75</ele>
        <time>2024-05-14T13:41:08Z</time>
      </trkpt>
      <trkpt lat="47.27415" lon="-1.06333">
        <ele>76</ele>
        <time>2024-05-14T13:42:33Z</time>
      </trkpt>
      <trkpt lat="47.27335" lon="-1.06187">
        <ele>72</ele>
        <time>2024-05-14T13:45:22Z</time>
      </trkpt>
      <trkpt lat="47.27252" lon="-1.06101">
        <ele>69</ele>
        <time>2024-05-14T13:47:38Z</time>
      </trkpt>
      <trkpt lat="47.27188" lon="-1.05935">
        <ele>62</ele>
        <time>2024-05-14T13:50:31Z</time>
      </trkpt>
      <trkpt lat="47.2707" lon="-1.05835">
        <ele>71</ele>
        <time>2024-05-14T13:53:32Z</time>
      </trkpt>
      <trkpt lat="47.27003" lon="-1.05731">
        <ele>71</ele>
        <time>2024-05-14T13:55:42Z</time>
      </trkpt>
      <trkpt lat="47.26982" lon="-1.05776">
        <ele>73</ele>
        <time>2024-05-14T13:56:32Z</time>
      </trkpt>
      <trkpt lat="47.26927" lon="-1.0578">
        <ele>75</ele>
        <time>2024-05-14T13:57:45Z</time>
      </trkpt>
      <trkpt lat="47.26877" lon="-1.05825">
        <ele>79</ele>
        <time>2024-05-14T13:59:03Z</time>
      </trkpt>
      <trkpt lat="47.26852" lon="-1.05868">
        <ele>82</ele>
        <time>2024-05-14T13:59:55Z</time>
      </trkpt>
      <trkpt lat="47.26855" lon="-1.05906">
        <ele>83</ele>
        <time>2024-05-14T14:00:29Z</time>
      </trkpt>
      <trkpt lat="47.2684" lon="-1.05946">
        <ele>86</ele>
        <time>2024-05-14T14:01:11Z</time>
      </trkpt>
      <trkpt lat="47.26804" lon="-1.05938">
        <ele>88</ele>
        <time>2024-05-14T14:01:59Z</time>
      </trkpt>
      <trkpt lat="47.26757" lon="-1.0591">
        <ele>89</ele>
        <time>2024-05-14T14:03:07Z</time>
      </trkpt>
      <trkpt lat="47.26662" lon="-1.05878">
        <ele>86</ele>
        <time>2024-05-14T14:05:17Z</time>
      </trkpt>
      <trkpt lat="47.2665" lon="-1.05991">
        <ele>88</ele>
        <time>2024-05-14T14:07:01Z</time>
      </trkpt>
      <trkpt lat="47.26665" lon="-1.06068">
        <ele>90</ele>
        <time>2024-05-14T14:08:13Z</time>
      </trkpt>
      <trkpt lat="47.26629" lon="-1.06205">
        <ele>87</ele>
        <time>2024-05-14T14:10:26Z</time>
      </trkpt>
      <trkpt lat="47.26603" lon="-1.06369">
        <ele>85</ele>
        <time>2024-05-14T14:12:59Z</time>
      </trkpt>
      <trkpt lat="47.26627" lon="-1.06407">
        <ele>87</ele>
        <time>2024-05-14T14:13:46Z</time>
      </trkpt>
      <trkpt lat="47.26672" lon="-1.06439">
        <ele>91</ele>
        <time>2024-05-14T14:14:52Z</time>
      </trkpt>
      <trkpt lat="47.2666" lon="-1.06536">
        <ele>92</ele>
        <time>2024-05-14T14:16:22Z</time>
      </trkpt>
      <trkpt lat="47.26638" lon="-1.06611">
        <ele>93</ele>
        <time>2024-05-14T14:17:36Z</time>
      </trkpt>
      <trkpt lat="47.26631" lon="-1.06802">
        <ele>92</ele>
        <time>2024-05-14T14:20:29Z</time>
      </trkpt>
      <trkpt lat="47.2661" lon="-1.07001">
        <ele>93</ele>
        <time>2024-05-14T14:23:31Z</time>
      </trkpt>
      <trkpt lat="47.265" lon="-1.07272">
        <ele>100</ele>
        <time>2024-05-14T14:28:17Z</time>
      </trkpt>
      <trkpt lat="47.26582" lon="-1.07491">
        <ele>102</ele>
        <time>2024-05-14T14:32:04Z</time>
      </trkpt>
      <trkpt lat="47.26624" lon="-1.07585">
        <ele>99</ele>
        <time>2024-05-14T14:33:46Z</time>
      </trkpt>
      <trkpt lat="47.26585" lon="-1.07588">
        <ele>102</ele>
        <time>2024-05-14T14:34:38Z</time>
      </trkpt>
      <trkpt lat="47.26536" lon="-1.07546">
        <ele>102</ele>
        <time>2024-05-14T14:35:53Z</time>
      </trkpt>
      <trkpt lat="47.26536" lon="-1.07578">
        <ele>102</ele>
        <time>2024-05-14T14:36:22Z</time>
      </trkpt>
      <trkpt lat="47.26648" lon="-1.07739">
        <ele>95</ele>
        <time>2024-05-14T14:39:51Z</time>
      </trkpt>
      <trkpt lat="47.26762" lon="-1.07849">
        <ele>92</ele>
        <time>2024-05-14T14:42:53Z</time>
      </trkpt>
      <trkpt lat="47.26861" lon="-1.07828">
        <ele>91</ele>
        <time>2024-05-14T14:45:06Z</time>
      </trkpt>
      <trkpt lat="47.26991" lon="-1.07639">
        <ele>85</ele>
        <time>2024-05-14T14:49:10Z</time>
      </trkpt>
      <trkpt lat="47.27056" lon="-1.07651">
        <ele>87</ele>
        <time>2024-05-14T14:50:38Z</time>
      </trkpt>
      <trkpt lat="47.27058" lon="-1.07653">
        <ele>87</ele>
        <time>2024-05-14T14:50:41Z</time>
      </trkpt>
      <trkpt lat="47.27058" lon="-1.07859">
        <ele>90</ele>
        <time>2024-05-14T14:53:47Z</time>
      </trkpt>
      <trkpt lat="47.27204" lon="-1.07966">
        <ele>92</ele>
        <time>2024-05-14T14:57:25Z</time>
      </trkpt>
      <trkpt lat="47.27293" lon="-1.07981">
        <ele>92</ele>
        <time>2024-05-14T14:59:24Z</time>
      </trkpt>
      <trkpt lat="47.27335" lon="-1.07945">
        <ele>90</ele>
        <time>2024-05-14T15:00:29Z</time>
      </trkpt>
      <trkpt lat="47.27504" lon="-1.07756">
        <ele>82</ele>
        <time>2024-05-14T15:05:12Z</time>
      </trkpt>
      <trkpt lat="47.27766" lon="-1.08001">
        <ele>94</ele>
        <time>2024-05-14T15:12:06Z</time>
      </trkpt>
      <trkpt lat="47.27949" lon="-1.0805">
        <ele>92</ele>
        <time>2024-05-14T15:16:15Z</time>
      </trkpt>
      <trkpt lat="47.27991" lon="-1.08191">
        <ele>88</ele>
        <time>2024-05-14T15:18:34Z</time>
      </trkpt>
      <trkpt lat="47.28006" lon="-1.0819">
        <ele>87</ele>
        <time>2024-05-14T15:18:54Z</time>
      </trkpt>
      <trkpt lat="47.28001" lon="-1.08223">
        <ele>88</ele>
        <time>2024-05-14T15:19:25Z</time>
      </trkpt>
      <trkpt lat="47.2805" lon="-1.08354">
        <ele>88</ele>
        <time>2024-05-14T15:21:40Z</time>
      </trkpt>
      <trkpt lat="47.28086" lon="-1.08635">
        <ele>91</ele>
        <time>2024-05-14T15:25:59Z</time>
      </trkpt>
      <trkpt lat="47.28097" lon="-1.08744">
        <ele>89</ele>
        <time>2024-05-14T15:27:39Z</time>
      </trkpt>
      <trkpt lat="47.28114" lon="-1.08814">
        <ele>87</ele>
        <time>2024-05-14T15:28:46Z</time>
      </trkpt>
      <trkpt lat="47.28152" lon="-1.08808">
        <ele>86</ele>
        <time>2024-05-14T15:29:37Z</time>
      </trkpt>
      <trkpt lat="47.28215" lon="-1.08765">
        <ele>85</ele>
        <time>2024-05-14T15:31:10Z</time>
      </trkpt>
      <trkpt lat="47.28393" lon="-1.08576">
        <ele>80</ele>
        <time>2024-05-14T15:36:02Z</time>
      </trkpt>
      <trkpt lat="47.28422" lon="-1.08533">
        <ele>77</ele>
        <time>2024-05-14T15:36:57Z</time>
      </trkpt>
      <trkpt lat="47.28441" lon="-1.08485">
        <ele>76</ele>
        <time>2024-05-14T15:37:48Z</time>
      </trkpt>
      <trkpt lat="47.28476" lon="-1.08457">
        <ele>77</ele>
        <time>2024-05-14T15:38:41Z</time>
      </trkpt>
      <trkpt lat="47.28493" lon="-1.08425">
        <ele>79</ele>
        <time>2024-05-14T15:39:18Z</time>
      </trkpt>
      <trkpt lat="47.28501" lon="-1.0844">
        <ele>78</ele>
        <time>2024-05-14T15:39:35Z</time>
      </trkpt>
      <trkpt lat="47.28564" lon="-1.08484">
        <ele>77</ele>
        <time>2024-05-14T15:41:08Z</time>
      </trkpt>
      <trkpt lat="47.28591" lon="-1.08492">
        <ele>77</ele>
        <time>2024-05-14T15:41:45Z</time>
      </trkpt>
      <trkpt lat="47.28663" lon="-1.08543">
        <ele>75</ele>
        <time>2024-05-14T15:43:31Z</time>
      </trkpt>
      <trkpt lat="47.28703" lon="-1.08585">
        <ele>75</ele>
        <time>2024-05-14T15:44:37Z</time>
      </trkpt>
      <trkpt lat="47.28727" lon="-1.08578">
        <ele>76</ele>
        <time>2024-05-14T15:45:09Z</time>
      </trkpt>
      <trkpt lat="47.28763" lon="-1.08556">
        <ele>77</ele>
        <time>2024-05-14T15:46:01Z</time>
      </trkpt>
      <trkpt lat="47.28848" lon="-1.08592">
        <ele>75</ele>
        <time>2024-05-14T15:47:59Z</time>
      </trkpt>
      <trkpt lat="47.28918" lon="-1.08591">
        <ele>73</ele>
        <time>2024-05-14T15:49:33Z</time>
      </trkpt>
      <trkpt lat="47.28957" lon="-1.08594">
        <ele>69</ele>
        <time>2024-05-14T15:50:25Z</time>
      </trkpt>
      <trkpt lat="47.28982" lon="-1.08597">
        <ele>67</ele>
        <time>2024-05-14T15:50:58Z</time>
      </trkpt>
      <trkpt lat="47.29013" lon="-1.08605">
        <ele>63</ele>
        <time>2024-05-14T15:51:40Z</time>
      </trkpt>
      <trkpt lat="47.29036" lon="-1.08607">
        <ele>59</ele>
        <time>2024-05-14T15:52:11Z</time>
      </trkpt>
      <trkpt lat="47.29078" lon="-1.08587">
        <ele>52</ele>
        <time>2024-05-14T15:53:10Z</time>
      </trkpt>
      <trkpt lat="47.29121" lon="-1.08559">
        <ele>45</ele>
        <time>2024-05-14T15:54:13Z</time>
      </trkpt>
      <trkpt lat="47.2914" lon="-1.08542">
        <ele>41</ele>
        <time>2024-05-14T15:54:42Z</time>
      </trkpt>
      <trkpt lat="47.29154" lon="-1.08517">
        <ele>39</ele>
        <time>2024-05-14T15:55:12Z</time>
      </trkpt>
      <trkpt lat="47.29157" lon="-1.08537">
        <ele>38</ele>
        <time>2024-05-14T15:55:30Z</time>
      </trkpt>
      <trkpt lat="47.29172" lon="-1.08554">
        <ele>38</ele>
        <time>2024-05-14T15:55:56Z</time>
      </trkpt>
      <trkpt lat="47.29185" lon="-1.08538">
        <ele>39</ele>
        <time>2024-05-14T15:56:18Z</time>
      </trkpt>
      <trkpt lat="47.29198" lon="-1.08499">
        <ele>39</ele>
        <time>2024-05-14T15:56:58Z</time>
      </trkpt>
      <trkpt lat="47.29209" lon="-1.08508">
        <ele>40</ele>
        <time>2024-05-14T15:57:14Z</time>
      </trkpt>
      <trkpt lat="47.29213" lon="-1.08525">
        <ele>42</ele>
        <time>2024-05-14T15:57:31Z</time>
      </trkpt>
      <trkpt lat="47.29212" lon="-1.08565">
        <ele>43</ele>
        <time>2024-05-14T15:58:07Z</time>
      </trkpt>
      <trkpt lat="47.29219" lon="-1.08586">
        <ele>45</ele>
        <time>2024-05-14T15:58:28Z</time>
      </trkpt>
      <trkpt lat="47.2922" lon="-1.08618">
        <ele>45</ele>
        <time>2024-05-14T15:58:57Z</time>
      </trkpt>
      <trkpt lat="47.29227" lon="-1.08685">
        <ele>45</ele>
        <time>2024-05-14T15:59:58Z</time>
      </trkpt>
      <trkpt lat="47.29234" lon="-1.08713">
        <ele>44</ele>
        <time>2024-05-14T16:00:25Z</time>
      </trkpt>
      <trkpt lat="47.29234" lon="-1.08726">
        <ele>43</ele>
        <time>2024-05-14T16:00:37Z</time>
      </trkpt>
      <trkpt lat="47.29239" lon="-1.08742">
        <ele>42</ele>
        <time>2024-05-14T16:00:53Z</time>
      </trkpt>
      <trkpt lat="47.29255" lon="-1.08773">
        <ele>42</ele>
        <time>2024-05-14T16:01:28Z</time>
      </trkpt>
      <trkpt lat="47.29259" lon="-1.08787">
        <ele>43</ele>
        <time>2024-05-14T16:01:42Z</time>
      </trkpt>
      <trkpt lat="47.29314" lon="-1.08785">
        <ele>52</ele>
        <time>2024-05-14T16:02:55Z</time>
      </trkpt>
      <trkpt lat="47.29335" lon="-1.08773">
        <ele>55</ele>
        <time>2024-05-14T16:03:26Z</time>
      </trkpt>
      <trkpt lat="47.2937" lon="-1.08763">
        <ele>57</ele>
        <time>2024-05-14T16:04:13Z</time>
      </trkpt>
      <trkpt lat="47.29384" lon="-1.08763">
        <ele>58</ele>
        <time>2024-05-14T16:04:32Z</time>
      </trkpt>
      <trkpt lat="47.29426" lon="-1.08773">
        <ele>60</ele>
        <time>2024-05-14T16:05:29Z</time>
      </trkpt>
      <trkpt lat="47.29456" lon="-1.08771">
        <ele>60</ele>
        <time>2024-05-14T16:06:09Z</time>
      </trkpt>
      <trkpt lat="47.29465" lon="-1.0878">
        <ele>60</ele>
        <time>2024-05-14T16:06:23Z</time>
      </trkpt>
      <trkpt lat="47.29475" lon="-1.0878">
        <ele>61</ele>
        <time>2024-05-14T16:06:37Z</time>
      </trkpt>
      <trkpt lat="47.29496" lon="-1.08788">
        <ele>61</ele>
        <time>2024-05-14T16:07:05Z</time>
      </trkpt>
      <trkpt lat="47.29515" lon="-1.08781">
        <ele>62</ele>
        <time>2024-05-14T16:07:32Z</time>
      </trkpt>
      <trkpt lat="47.29554" lon="-1.08776">
        <ele>65</ele>
        <time>2024-05-14T16:08:24Z</time>
      </trkpt>
      <trkpt lat="47.29575" lon="-1.08766">
        <ele>67</ele>
        <time>2024-05-14T16:08:53Z</time>
      </trkpt>
      <trkpt lat="47.29575" lon="-1.08774">
        <ele>67</ele>
        <time>2024-05-14T16:09:01Z</time>
      </trkpt>
      <trkpt lat="47.29579" lon="-1.08772">
        <ele>67</ele>
        <time>2024-05-14T16:09:06Z</time>
      </trkpt>
      <trkpt lat="47.29581" lon="-1.08777">
        <ele>67</ele>
        <time>2024-05-14T16:09:11Z</time>
      </trkpt>
      <trkpt lat="47.29581" lon="-1.08775">
        <ele>67</ele>
        <time>2024-05-14T16:09:13Z</time>
      </trkpt>
      <trkpt lat="47.2959" lon="-1.08772">
        <ele>68</ele>
        <time>2024-05-14T16:09:26Z</time>
      </trkpt>
      <trkpt lat="47.29604" lon="-1.08775">
        <ele>69</ele>
        <time>2024-05-14T16:09:44Z</time>
      </trkpt>
      <trkpt lat="47.29647" lon="-1.08797">
        <ele>72</ele>
        <time>2024-05-14T16:10:45Z</time>
      </trkpt>
      <trkpt lat="47.29666" lon="-1.08816">
        <ele>73</ele>
        <time>2024-05-14T16:11:16Z</time>
      </trkpt>
      <trkpt lat="47.29686" lon="-1.0882">
        <ele>73</ele>
        <time>2024-05-14T16:11:43Z</time>
      </trkpt>
      <trkpt lat="47.29703" lon="-1.08818">
        <ele>74</ele>
        <time>2024-05-14T16:12:05Z</time>
      </trkpt>
      <trkpt lat="47.29755" lon="-1.08805">
        <ele>75</ele>
        <time>2024-05-14T16:13:16Z</time>
      </trkpt>
      <trkpt lat="47.29767" lon="-1.08805">
        <ele>75</ele>
        <time>2024-05-14T16:13:32Z</time>
      </trkpt>
      <trkpt lat="47.29784" lon="-1.08801">
        <ele>75</ele>
        <time>2024-05-14T16:13:55Z</time>
      </trkpt>
      <trkpt lat="47.29787" lon="-1.08798">
        <ele>75</ele>
        <time>2024-05-14T16:14:00Z</time>
      </trkpt>
      <trkpt lat="47.29821" lon="-1.08785">
        <ele>74</ele>
        <time>2024-05-14T16:14:47Z</time>
      </trkpt>
      <trkpt lat="47.29839" lon="-1.08784">
        <ele>74</ele>
        <time>2024-05-14T16:15:11Z</time>
      </trkpt>
      <trkpt lat="47.29851" lon="-1.08786">
        <ele>74</ele>
        <time>2024-05-14T16:15:27Z</time>
      </trkpt>
      <trkpt lat="47.29882" lon="-1.08781">
        <ele>75</ele>
        <time>2024-05-14T16:16:08Z</time>
      </trkpt>
      <trkpt lat="47.29898" lon="-1.08775">
        <ele>75</ele>
        <time>2024-05-14T16:16:30Z</time>
      </trkpt>
      <trkpt lat="47.29905" lon="-1.08768">
        <ele>76</ele>
        <time>2024-05-14T16:16:42Z</time>
      </trkpt>
      <trkpt lat="47.29934" lon="-1.08754">
        <ele>77</ele>
        <time>2024-05-14T16:17:22Z</time>
      </trkpt>
      <trkpt lat="47.2995" lon="-1.08749">
        <ele>77</ele>
        <time>2024-05-14T16:17:44Z</time>
      </trkpt>
      <trkpt lat="47.2998" lon="-1.08746">
        <ele>77</ele>
        <time>2024-05-14T16:18:24Z</time>
      </trkpt>
      <trkpt lat="47.29998" lon="-1.08749">
        <ele>77</ele>
        <time>2024-05-14T16:18:48Z</time>
      </trkpt>
      <trkpt lat="47.3003" lon="-1.0875">
        <ele>76</ele>
        <time>2024-05-14T16:19:31Z</time>
      </trkpt>
      <trkpt lat="47.30036" lon="-1.08745">
        <ele>76</ele>
        <time>2024-05-14T16:19:40Z</time>
      </trkpt>
      <trkpt lat="47.30037" lon="-1.08741">
        <ele>76</ele>
        <time>2024-05-14T16:19:44Z</time>
      </trkpt>
      <trkpt lat="47.30033" lon="-1.08726">
        <ele>77</ele>
        <time>2024-05-14T16:19:59Z</time>
      </trkpt>
      <trkpt lat="47.30033" lon="-1.087">
        <ele>78</ele>
        <time>2024-05-14T16:20:22Z</time>
      </trkpt>
      <trkpt lat="47.3004" lon="-1.08688">
        <ele>78</ele>
        <time>2024-05-14T16:20:37Z</time>
      </trkpt>
      <trkpt lat="47.30046" lon="-1.08686">
        <ele>78</ele>
        <time>2024-05-14T16:20:45Z</time>
      </trkpt>
      <trkpt lat="47.30068" lon="-1.08685">
        <ele>78</ele>
        <time>2024-05-14T16:21:14Z</time>
      </trkpt>
      <trkpt lat="47.30089" lon="-1.0868">
        <ele>78</ele>
        <time>2024-05-14T16:21:43Z</time>
      </trkpt>
      <trkpt lat="47.30098" lon="-1.08682">
        <ele>78</ele>
        <time>2024-05-14T16:21:55Z</time>
      </trkpt>
      <trkpt lat="47.30152" lon="-1.08679">
        <ele>77</ele>
        <time>2024-05-14T16:23:07Z</time>
      </trkpt>
      <trkpt lat="47.30168" lon="-1.08681">
        <ele>77</ele>
        <time>2024-05-14T16:23:28Z</time>
      </trkpt>
      <trkpt lat="47.3017" lon="-1.08677">
        <ele>77</ele>
        <time>2024-05-14T16:23:33Z</time>
      </trkpt>
      <trkpt lat="47.30175" lon="-1.08676">
        <ele>77</ele>
        <time>2024-05-14T16:23:40Z</time>
      </trkpt>
      <trkpt lat="47.30192" lon="-1.0868">
        <ele>77</ele>
        <time>2024-05-14T16:24:03Z</time>
      </trkpt>
      <trkpt lat="47.30202" lon="-1.08686">
        <ele>77</ele>
        <time>2024-05-14T16:24:17Z</time>
      </trkpt>
      <trkpt lat="47.30213" lon="-1.08683">
        <ele>78</ele>
        <time>2024-05-14T16:24:32Z</time>
      </trkpt>
      <trkpt lat="47.30225" lon="-1.08683">
        <ele>78</ele>
        <time>2024-05-14T16:24:48Z</time>
      </trkpt>
      <trkpt lat="47.30286" lon="-1.08665">
        <ele>80</ele>
        <time>2024-05-14T16:26:11Z</time>
      </trkpt>
      <trkpt lat="47.30334" lon="-1.0864">
        <ele>81</ele>
        <time>2024-05-14T16:27:19Z</time>
      </trkpt>
      <trkpt lat="47.3035" lon="-1.08639">
        <ele>81</ele>
        <time>2024-05-14T16:27:40Z</time>
      </trkpt>
      <trkpt lat="47.3037" lon="-1.08634">
        <ele>81</ele>
        <time>2024-05-14T16:28:07Z</time>
      </trkpt>
      <trkpt lat="47.30375" lon="-1.08635">
        <ele>80</ele>
        <time>2024-05-14T16:28:14Z</time>
      </trkpt>
      <trkpt lat="47.30381" lon="-1.08641">
        <ele>80</ele>
        <time>2024-05-14T16:28:24Z</time>
      </trkpt>
      <trkpt lat="47.30396" lon="-1.08642">
        <ele>80</ele>
        <time>2024-05-14T16:28:44Z</time>
      </trkpt>
      <trkpt lat="47.30414" lon="-1.08636">
        <ele>80</ele>
        <time>2024-05-14T16:29:08Z</time>
      </trkpt>
      <trkpt lat="47.30421" lon="-1.08638">
        <ele>80</ele>
        <time>2024-05-14T16:29:18Z</time>
      </trkpt>
      <trkpt lat="47.30434" lon="-1.08631">
        <ele>81</ele>
        <time>2024-05-14T16:29:36Z</time>
      </trkpt>
      <trkpt lat="47.30437" lon="-1.08633">
        <ele>81</ele>
        <time>2024-05-14T16:29:41Z</time>
      </trkpt>
      <trkpt lat="47.30457" lon="-1.08631">
        <ele>82</ele>
        <time>2024-05-14T16:30:07Z</time>
      </trkpt>
      <trkpt lat="47.30507" lon="-1.08607">
        <ele>85</ele>
        <time>2024-05-14T16:31:18Z</time>
      </trkpt>
      <trkpt lat="47.30511" lon="-1.08607">
        <ele>85</ele>
        <time>2024-05-14T16:31:23Z</time>
      </trkpt>
      <trkpt lat="47.30559" lon="-1.08581">
        <ele>86</ele>
        <time>2024-05-14T16:32:31Z</time>
      </trkpt>
      <trkpt lat="47.30571" lon="-1.08579">
        <ele>87</ele>
        <time>2024-05-14T16:32:47Z</time>
      </trkpt>
      <trkpt lat="47.30601" lon="-1.08623">
        <ele>86</ele>
        <time>2024-05-14T16:33:44Z</time>
      </trkpt>
      <trkpt lat="47.30612" lon="-1.08645">
        <ele>85</ele>
        <time>2024-05-14T16:34:09Z</time>
      </trkpt>
      <trkpt lat="47.3066" lon="-1.08711">
        <ele>85</ele>
        <time>2024-05-14T16:35:36Z</time>
      </trkpt>
      <trkpt lat="47.30675" lon="-1.08743">
        <ele>84</ele>
        <time>2024-05-14T16:36:11Z</time>
      </trkpt>
      <trkpt lat="47.307" lon="-1.08775">
        <ele>85</ele>
        <time>2024-05-14T16:36:55Z</time>
      </trkpt>
      <trkpt lat="47.30705" lon="-1.08787">
        <ele>85</ele>
        <time>2024-05-14T16:37:08Z</time>
      </trkpt>
      <trkpt lat="47.3076" lon="-1.08871">
        <ele>87</ele>
        <time>2024-05-14T16:38:54Z</time>
      </trkpt>
      <trkpt lat="47.30785" lon="-1.08906">
        <ele>88</ele>
        <time>2024-05-14T16:39:40Z</time>
      </trkpt>
      <trkpt lat="47.30794" lon="-1.08912">
        <ele>89</ele>
        <time>2024-05-14T16:39:53Z</time>
      </trkpt>
      <trkpt lat="47.30804" lon="-1.08924">
        <ele>89</ele>
        <time>2024-05-14T16:40:10Z</time>
      </trkpt>
      <trkpt lat="47.30809" lon="-1.08936">
        <ele>89</ele>
        <time>2024-05-14T16:40:23Z</time>
      </trkpt>
      <trkpt lat="47.30843" lon="-1.08988">
        <ele>91</ele>
        <time>2024-05-14T16:41:28Z</time>
      </trkpt>
      <trkpt lat="47.30841" lon="-1.08981">
        <ele>91</ele>
        <time>2024-05-14T16:41:35Z</time>
      </trkpt>
      <trkpt lat="47.3093" lon="-1.09112">
        <ele>93</ele>
        <time>2024-05-14T16:44:23Z</time>
      </trkpt>
      <trkpt lat="47.31071" lon="-1.0873">
        <ele>94</ele>
        <time>2024-05-14T16:50:57Z</time>
      </trkpt>
      <trkpt lat="47.31126" lon="-1.08653">
        <ele>96</ele>
        <time>2024-05-14T16:52:38Z</time>
      </trkpt>
      <trkpt lat="47.31178" lon="-1.08526">
        <ele>98</ele>
        <time>2024-05-14T16:54:52Z</time>
      </trkpt>
      <trkpt lat="47.31208" lon="-1.08465">
        <ele>98</ele>
        <time>2024-05-14T16:56:00Z</time>
      </trkpt>
      <trkpt lat="47.31206" lon="-1.08388">
        <ele>97</ele>
        <time>2024-05-14T16:57:10Z</time>
      </trkpt>
      <trkpt lat="47.31073" lon="-1.08312">
        <ele>96</ele>
        <time>2024-05-14T17:00:20Z</time>
      </trkpt>
      <trkpt lat="47.31091" lon="-1.0828">
        <ele>95</ele>
        <time>2024-05-14T17:00:58Z</time>
      </trkpt>
      <trkpt lat="47.31126" lon="-1.08258">
        <ele>95</ele>
        <time>2024-05-14T17:01:49Z</time>
      </trkpt>
      <trkpt lat="47.31331" lon="-1.08033">
        <ele>92</ele>
        <time>2024-05-14T17:07:30Z</time>
      </trkpt>
      <trkpt lat="47.31401" lon="-1.07909">
        <ele>95</ele>
        <time>2024-05-14T17:09:56Z</time>
      </trkpt>
      <trkpt lat="47.31454" lon="-1.07798">
        <ele>96</ele>
        <time>2024-05-14T17:11:58Z</time>
      </trkpt>
      <trkpt lat="47.31451" lon="-1.0779">
        <ele>96</ele>
        <time>2024-05-14T17:12:07Z</time>
      </trkpt>
      <trkpt lat="47.31448" lon="-1.07791">
        <ele>96</ele>
        <time>2024-05-14T17:12:11Z</time>
      </trkpt>
      <trkpt lat="47.31451" lon="-1.07778">
        <ele>96</ele>
        <time>2024-05-14T17:12:23Z</time>
      </trkpt>
      <trkpt lat="47.31437" lon="-1.07742">
        <ele>96</ele>
        <time>2024-05-14T17:13:01Z</time>
      </trkpt>
      <trkpt lat="47.31425" lon="-1.07724">
        <ele>96</ele>
        <time>2024-05-14T17:13:24Z</time>
      </trkpt>
      <trkpt lat="47.31417" lon="-1.07705">
        <ele>96</ele>
        <time>2024-05-14T17:13:44Z</time>
      </trkpt>
      <trkpt lat="47.314" lon="-1.07645">
        <ele>96</ele>
        <time>2024-05-14T17:14:43Z</time>
      </trkpt>
      <trkpt lat="47.31368" lon="-1.07554">
        <ele>95</ele>
        <time>2024-05-14T17:16:15Z</time>
      </trkpt>
      <trkpt lat="47.31361" lon="-1.07522">
        <ele>95</ele>
        <time>2024-05-14T17:16:46Z</time>
      </trkpt>
      <trkpt lat="47.31353" lon="-1.07516">
        <ele>95</ele>
        <time>2024-05-14T17:16:58Z</time>
      </trkpt>
      <trkpt lat="47.3135" lon="-1.07503">
        <ele>95</ele>
        <time>2024-05-14T17:17:10Z</time>
      </trkpt>
      <trkpt lat="47.31345" lon="-1.07498">
        <ele>95</ele>
        <time>2024-05-14T17:17:18Z</time>
      </trkpt>
      <trkpt lat="47.3134" lon="-1.07478">
        <ele>95</ele>
        <time>2024-05-14T17:17:38Z</time>
      </trkpt>
      <trkpt lat="47.3134" lon="-1.07455">
        <ele>96</ele>
        <time>2024-05-14T17:17:58Z</time>
      </trkpt>
      <trkpt lat="47.31336" lon="-1.07428">
        <ele>96</ele>
        <time>2024-05-14T17:18:23Z</time>
      </trkpt>
      <trkpt lat="47.31309" lon="-1.07353">
        <ele>97</ele>
        <time>2024-05-14T17:19:40Z</time>
      </trkpt>
      <trkpt lat="47.31287" lon="-1.07258">
        <ele>96</ele>
        <time>2024-05-14T17:21:11Z</time>
      </trkpt>
      <trkpt lat="47.31275" lon="-1.07229">
        <ele>95</ele>
        <time>2024-05-14T17:21:42Z</time>
      </trkpt>
      <trkpt lat="47.31267" lon="-1.07196">
        <ele>94</ele>
        <time>2024-05-14T17:22:14Z</time>
      </trkpt>
      <trkpt lat="47.31255" lon="-1.07172">
        <ele>93</ele>
        <time>2024-05-14T17:22:41Z</time>
      </trkpt>
      <trkpt lat="47.31252" lon="-1.07157">
        <ele>93</ele>
        <time>2024-05-14T17:22:55Z</time>
      </trkpt>
      <trkpt lat="47.31233" lon="-1.07116">
        <ele>91</ele>
        <time>2024-05-14T17:23:40Z</time>
      </trkpt>
      <trkpt lat="47.31229" lon="-1.07102">
        <ele>91</ele>
        <time>2024-05-14T17:23:53Z</time>
      </trkpt>
      <trkpt lat="47.31224" lon="-1.07078">
        <ele>90</ele>
        <time>2024-05-14T17:24:16Z</time>
      </trkpt>
      <trkpt lat="47.31223" lon="-1.07059">
        <ele>90</ele>
        <time>2024-05-14T17:24:33Z</time>
      </trkpt>
      <trkpt lat="47.3122" lon="-1.07051">
        <ele>90</ele>
        <time>2024-05-14T17:24:42Z</time>
      </trkpt>
      <trkpt lat="47.31219" lon="-1.06998">
        <ele>89</ele>
        <time>2024-05-14T17:25:30Z</time>
      </trkpt>
      <trkpt lat="47.31215" lon="-1.06994">
        <ele>89</ele>
        <time>2024-05-14T17:25:36Z</time>
      </trkpt>
      <trkpt lat="47.31196" lon="-1.06995">
        <ele>89</ele>
        <time>2024-05-14T17:26:01Z</time>
      </trkpt>
      <trkpt lat="47.31189" lon="-1.06993">
        <ele>88</ele>
        <time>2024-05-14T17:26:11Z</time>
      </trkpt>
      <trkpt lat="47.31175" lon="-1.06983">
        <ele>88</ele>
        <time>2024-05-14T17:26:32Z</time>
      </trkpt>
      <trkpt lat="47.31163" lon="-1.0697">
        <ele>88</ele>
        <time>2024-05-14T17:26:52Z</time>
      </trkpt>
      <trkpt lat="47.31156" lon="-1.06968">
        <ele>87</ele>
        <time>2024-05-14T17:27:01Z</time>
      </trkpt>
      <trkpt lat="47.31148" lon="-1.0697">
        <ele>87</ele>
        <time>2024-05-14T17:27:12Z</time>
      </trkpt>
      <trkpt lat="47.31135" lon="-1.06983">
        <ele>87</ele>
        <time>2024-05-14T17:27:33Z</time>
      </trkpt>
      <trkpt lat="47.31079" lon="-1.0702">
        <ele>86</ele>
        <time>2024-05-14T17:28:55Z</time>
      </trkpt>
      <trkpt lat="47.31076" lon="-1.07027">
        <ele>86</ele>
        <time>2024-05-14T17:29:02Z</time>
      </trkpt>
      <trkpt lat="47.31065" lon="-1.07038">
        <ele>86</ele>
        <time>2024-05-14T17:29:20Z</time>
      </trkpt>
      <trkpt lat="47.31052" lon="-1.07067">
        <ele>86</ele>
        <time>2024-05-14T17:29:51Z</time>
      </trkpt>
      <trkpt lat="47.31023" lon="-1.0714">
        <ele>88</ele>
        <time>2024-05-14T17:31:08Z</time>
      </trkpt>
      <trkpt lat="47.31018" lon="-1.07165">
        <ele>89</ele>
        <time>2024-05-14T17:31:32Z</time>
      </trkpt>
      <trkpt lat="47.31003" lon="-1.07202">
        <ele>89</ele>
        <time>2024-05-14T17:32:11Z</time>
      </trkpt>
      <trkpt lat="47.30989" lon="-1.07213">
        <ele>89</ele>
        <time>2024-05-14T17:32:32Z</time>
      </trkpt>
      <trkpt lat="47.30949" lon="-1.07224">
        <ele>88</ele>
        <time>2024-05-14T17:33:26Z</time>
      </trkpt>
      <trkpt lat="47.30872" lon="-1.07232">
        <ele>86</ele>
        <time>2024-05-14T17:35:09Z</time>
      </trkpt>
      <trkpt lat="47.30838" lon="-1.0723">
        <ele>85</ele>
        <time>2024-05-14T17:35:54Z</time>
      </trkpt>
      <trkpt lat="47.308" lon="-1.07222">
        <ele>84</ele>
        <time>2024-05-14T17:36:46Z</time>
      </trkpt>
      <trkpt lat="47.30778" lon="-1.07226">
        <ele>84</ele>
        <time>2024-05-14T17:37:15Z</time>
      </trkpt>
      <trkpt lat="47.30769" lon="-1.07224">
        <ele>84</ele>
        <time>2024-05-14T17:37:27Z</time>
      </trkpt>
      <trkpt lat="47.30737" lon="-1.07206">
        <ele>83</ele>
        <time>2024-05-14T17:38:13Z</time>
      </trkpt>
      <trkpt lat="47.30732" lon="-1.07207">
        <ele>83</ele>
        <time>2024-05-14T17:38:20Z</time>
      </trkpt>
      <trkpt lat="47.30711" lon="-1.07202">
        <ele>82</ele>
        <time>2024-05-14T17:38:48Z</time>
      </trkpt>
      <trkpt lat="47.30695" lon="-1.07201">
        <ele>82</ele>
        <time>2024-05-14T17:39:10Z</time>
      </trkpt>
      <trkpt lat="47.30638" lon="-1.07185">
        <ele>81</ele>
        <time>2024-05-14T17:40:27Z</time>
      </trkpt>
      <trkpt lat="47.30613" lon="-1.07175">
        <ele>80</ele>
        <time>2024-05-14T17:41:02Z</time>
      </trkpt>
      <trkpt lat="47.30595" lon="-1.07175">
        <ele>80</ele>
        <time>2024-05-14T17:41:26Z</time>
      </trkpt>
      <trkpt lat="47.30575" lon="-1.07171">
        <ele>80</ele>
        <time>2024-05-14T17:41:53Z</time>
      </trkpt>
      <trkpt lat="47.30553" lon="-1.07162">
        <ele>79</ele>
        <time>2024-05-14T17:42:23Z</time>
      </trkpt>
      <trkpt lat="47.30551" lon="-1.07158">
        <ele>78</ele>
        <time>2024-05-14T17:42:27Z</time>
      </trkpt>
      <trkpt lat="47.3055" lon="-1.0716">
        <ele>78</ele>
        <time>2024-05-14T17:42:30Z</time>
      </trkpt>
      <trkpt lat="47.30542" lon="-1.0716">
        <ele>78</ele>
        <time>2024-05-14T17:42:40Z</time>
      </trkpt>
      <trkpt lat="47.30544" lon="-1.07156">
        <ele>78</ele>
        <time>2024-05-14T17:42:45Z</time>
      </trkpt>
      <trkpt lat="47.30542" lon="-1.07158">
        <ele>78</ele>
        <time>2024-05-14T17:42:48Z</time>
      </trkpt>
      <trkpt lat="47.30533" lon="-1.07158">
        <ele>78</ele>
        <time>2024-05-14T17:43:00Z</time>
      </trkpt>
      <trkpt lat="47.305" lon="-1.07154">
        <ele>76</ele>
        <time>2024-05-14T17:43:44Z</time>
      </trkpt>
      <trkpt lat="47.30498" lon="-1.07155">
        <ele>76</ele>
        <time>2024-05-14T17:43:47Z</time>
      </trkpt>
      <trkpt lat="47.30484" lon="-1.07215">
        <ele>75</ele>
        <time>2024-05-14T17:44:45Z</time>
      </trkpt>
      <trkpt lat="47.30476" lon="-1.07237">
        <ele>75</ele>
        <time>2024-05-14T17:45:07Z</time>
      </trkpt>
      <trkpt lat="47.30465" lon="-1.07285">
        <ele>70</ele>
        <time>2024-05-14T17:45:53Z</time>
      </trkpt>
      <trkpt lat="47.30457" lon="-1.07297">
        <ele>67</ele>
        <time>2024-05-14T17:46:08Z</time>
      </trkpt>
      <trkpt lat="47.30437" lon="-1.07299">
        <ele>63</ele>
        <time>2024-05-14T17:46:35Z</time>
      </trkpt>
      <trkpt lat="47.30412" lon="-1.07297">
        <ele>59</ele>
        <time>2024-05-14T17:47:08Z</time>
      </trkpt>
      <trkpt lat="47.30402" lon="-1.073">
        <ele>57</ele>
        <time>2024-05-14T17:47:22Z</time>
      </trkpt>
      <trkpt lat="47.304" lon="-1.07304">
        <ele>56</ele>
        <time>2024-05-14T17:47:27Z</time>
      </trkpt>
      <trkpt lat="47.30392" lon="-1.07307">
        <ele>54</ele>
        <time>2024-05-14T17:47:38Z</time>
      </trkpt>
      <trkpt lat="47.30374" lon="-1.07298">
        <ele>50</ele>
        <time>2024-05-14T17:48:03Z</time>
      </trkpt>
      <trkpt lat="47.30365" lon="-1.07297">
        <ele>48</ele>
        <time>2024-05-14T17:48:15Z</time>
      </trkpt>
      <trkpt lat="47.3036" lon="-1.073">
        <ele>47</ele>
        <time>2024-05-14T17:48:22Z</time>
      </trkpt>
      <trkpt lat="47.30351" lon="-1.07301">
        <ele>45</ele>
        <time>2024-05-14T17:48:34Z</time>
      </trkpt>
      <trkpt lat="47.30349" lon="-1.07296">
        <ele>45</ele>
        <time>2024-05-14T17:48:39Z</time>
      </trkpt>
      <trkpt lat="47.30352" lon="-1.07299">
        <ele>45</ele>
        <time>2024-05-14T17:48:44Z</time>
      </trkpt>
      <trkpt lat="47.30354" lon="-1.07298">
        <ele>46</ele>
        <time>2024-05-14T17:48:47Z</time>
      </trkpt>
      <trkpt lat="47.30352" lon="-1.07301">
        <ele>45</ele>
        <time>2024-05-14T17:48:51Z</time>
      </trkpt>
      <trkpt lat="47.30364" lon="-1.07301">
        <ele>48</ele>
        <time>2024-05-14T17:49:07Z</time>
      </trkpt>
      <trkpt lat="47.30365" lon="-1.07304">
        <ele>48</ele>
        <time>2024-05-14T17:49:10Z</time>
      </trkpt>
      <trkpt lat="47.30365" lon="-1.07302">
        <ele>48</ele>
        <time>2024-05-14T17:49:12Z</time>
      </trkpt>
      <trkpt lat="47.30359" lon="-1.0731">
        <ele>47</ele>
        <time>2024-05-14T17:49:23Z</time>
      </trkpt>
      <trkpt lat="47.30359" lon="-1.07316">
        <ele>47</ele>
        <time>2024-05-14T17:49:28Z</time>
      </trkpt>
      <trkpt lat="47.3035" lon="-1.07326">
        <ele>46</ele>
        <time>2024-05-14T17:49:43Z</time>
      </trkpt>
      <trkpt lat="47.30344" lon="-1.07339">
        <ele>46</ele>
        <time>2024-05-14T17:49:57Z</time>
      </trkpt>
      <trkpt lat="47.30332" lon="-1.07345">
        <ele>44</ele>
        <time>2024-05-14T17:50:14Z</time>
      </trkpt>
      <trkpt lat="47.30329" lon="-1.07353">
        <ele>43</ele>
        <time>2024-05-14T17:50:22Z</time>
      </trkpt>
      <trkpt lat="47.30325" lon="-1.07358">
        <ele>43</ele>
        <time>2024-05-14T17:50:29Z</time>
      </trkpt>
      <trkpt lat="47.30321" lon="-1.07359">
        <ele>42</ele>
        <time>2024-05-14T17:50:35Z</time>
      </trkpt>
      <trkpt lat="47.30319" lon="-1.07364">
        <ele>42</ele>
        <time>2024-05-14T17:50:40Z</time>
      </trkpt>
      <trkpt lat="47.30301" lon="-1.07371">
        <ele>40</ele>
        <time>2024-05-14T17:51:05Z</time>
      </trkpt>
      <trkpt lat="47.30298" lon="-1.07378">
        <ele>40</ele>
        <time>2024-05-14T17:51:12Z</time>
      </trkpt>
      <trkpt lat="47.30281" lon="-1.07389">
        <ele>38</ele>
        <time>2024-05-14T17:51:37Z</time>
      </trkpt>
      <trkpt lat="47.30278" lon="-1.07395">
        <ele>39</ele>
        <time>2024-05-14T17:51:44Z</time>
      </trkpt>
      <trkpt lat="47.30267" lon="-1.07386">
        <ele>36</ele>
        <time>2024-05-14T17:52:01Z</time>
      </trkpt>
      <trkpt lat="47.30267" lon="-1.07388">
        <ele>37</ele>
        <time>2024-05-14T17:52:03Z</time>
      </trkpt>
      <trkpt lat="47.30268" lon="-1.07386">
        <ele>36</ele>
        <time>2024-05-14T17:52:05Z</time>
      </trkpt>
      <trkpt lat="47.30244" lon="-1.07382">
        <ele>34</ele>
        <time>2024-05-14T17:52:37Z</time>
      </trkpt>
      <trkpt lat="47.30239" lon="-1.07372">
        <ele>32</ele>
        <time>2024-05-14T17:52:48Z</time>
      </trkpt>
      <trkpt lat="47.3024" lon="-1.07368">
        <ele>31</ele>
        <time>2024-05-14T17:52:52Z</time>
      </trkpt>
      <trkpt lat="47.30247" lon="-1.07364">
        <ele>31</ele>
        <time>2024-05-14T17:53:02Z</time>
      </trkpt>
      <trkpt lat="47.30249" lon="-1.07365">
        <ele>31</ele>
        <time>2024-05-14T17:53:05Z</time>
      </trkpt>
      <trkpt lat="47.30253" lon="-1.0736">
        <ele>31</ele>
        <time>2024-05-14T17:53:12Z</time>
      </trkpt>
      <trkpt lat="47.3026" lon="-1.07361">
        <ele>32</ele>
        <time>2024-05-14T17:53:21Z</time>
      </trkpt>
      <trkpt lat="47.30275" lon="-1.0737">
        <ele>36</ele>
        <time>2024-05-14T17:53:43Z</time>
      </trkpt>
      <trkpt lat="47.3028" lon="-1.07377">
        <ele>37</ele>
        <time>2024-05-14T17:53:52Z</time>
      </trkpt>
      <trkpt lat="47.30282" lon="-1.07387">
        <ele>38</ele>
        <time>2024-05-14T17:54:02Z</time>
      </trkpt>
      <trkpt lat="47.30291" lon="-1.0739">
        <ele>40</ele>
        <time>2024-05-14T17:54:14Z</time>
      </trkpt>
      <trkpt lat="47.30289" lon="-1.07394">
        <ele>40</ele>
        <time>2024-05-14T17:54:18Z</time>
      </trkpt>
      <trkpt lat="47.30295" lon="-1.07396">
        <ele>41</ele>
        <time>2024-05-14T17:54:27Z</time>
      </trkpt>
      <trkpt lat="47.30304" lon="-1.07395">
        <ele>42</ele>
        <time>2024-05-14T17:54:39Z</time>
      </trkpt>
      <trkpt lat="47.30314" lon="-1.07403">
        <ele>43</ele>
        <time>2024-05-14T17:54:54Z</time>
      </trkpt>
      <trkpt lat="47.30321" lon="-1.07397">
        <ele>43</ele>
        <time>2024-05-14T17:55:05Z</time>
      </trkpt>
      <trkpt lat="47.30338" lon="-1.07392">
        <ele>45</ele>
        <time>2024-05-14T17:55:28Z</time>
      </trkpt>
      <trkpt lat="47.30363" lon="-1.07394">
        <ele>48</ele>
        <time>2024-05-14T17:56:01Z</time>
      </trkpt>
      <trkpt lat="47.30364" lon="-1.07385">
        <ele>48</ele>
        <time>2024-05-14T17:56:09Z</time>
      </trkpt>
      <trkpt lat="47.30368" lon="-1.0738">
        <ele>48</ele>
        <time>2024-05-14T17:56:16Z</time>
      </trkpt>
      <trkpt lat="47.30385" lon="-1.07385">
        <ele>50</ele>
        <time>2024-05-14T17:56:40Z</time>
      </trkpt>
      <trkpt lat="47.30393" lon="-1.07378">
        <ele>51</ele>
        <time>2024-05-14T17:56:52Z</time>
      </trkpt>
      <trkpt lat="47.30399" lon="-1.07368">
        <ele>52</ele>
        <time>2024-05-14T17:57:04Z</time>
      </trkpt>
      <trkpt lat="47.30405" lon="-1.07365">
        <ele>53</ele>
        <time>2024-05-14T17:57:13Z</time>
      </trkpt>
      <trkpt lat="47.30418" lon="-1.07367">
        <ele>55</ele>
        <time>2024-05-14T17:57:30Z</time>
      </trkpt>
      <trkpt lat="47.30447" lon="-1.07386">
        <ele>57</ele>
        <time>2024-05-14T17:58:12Z</time>
      </trkpt>
      <trkpt lat="47.30466" lon="-1.07412">
        <ele>57</ele>
        <time>2024-05-14T17:58:47Z</time>
      </trkpt>
      <trkpt lat="47.30482" lon="-1.07423">
        <ele>58</ele>
        <time>2024-05-14T17:59:10Z</time>
      </trkpt>
      <trkpt lat="47.3049" lon="-1.07437">
        <ele>59</ele>
        <time>2024-05-14T17:59:27Z</time>
      </trkpt>
      <trkpt lat="47.30502" lon="-1.07447">
        <ele>60</ele>
        <time>2024-05-14T17:59:45Z</time>
      </trkpt>
      <trkpt lat="47.30515" lon="-1.0745">
        <ele>61</ele>
        <time>2024-05-14T18:00:03Z</time>
      </trkpt>
      <trkpt lat="47.30521" lon="-1.07455">
        <ele>61</ele>
        <time>2024-05-14T18:00:12Z</time>
      </trkpt>
      <trkpt lat="47.30529" lon="-1.07455">
        <ele>62</ele>
        <time>2024-05-14T18:00:23Z</time>
      </trkpt>
      <trkpt lat="47.30535" lon="-1.07458">
        <ele>62</ele>
        <time>2024-05-14T18:00:31Z</time>
      </trkpt>
      <trkpt lat="47.3057" lon="-1.07457">
        <ele>65</ele>
        <time>2024-05-14T18:01:18Z</time>
      </trkpt>
      <trkpt lat="47.30593" lon="-1.07471">
        <ele>67</ele>
        <time>2024-05-14T18:01:51Z</time>
      </trkpt>
      <trkpt lat="47.30608" lon="-1.07487">
        <ele>67</ele>
        <time>2024-05-14T18:02:16Z</time>
      </trkpt>
      <trkpt lat="47.30628" lon="-1.07522">
        <ele>69</ele>
        <time>2024-05-14T18:02:57Z</time>
      </trkpt>
      <trkpt lat="47.30632" lon="-1.0754">
        <ele>70</ele>
        <time>2024-05-14T18:03:14Z</time>
      </trkpt>
      <trkpt lat="47.30648" lon="-1.07556">
        <ele>70</ele>
        <time>2024-05-14T18:03:40Z</time>
      </trkpt>
      <trkpt lat="47.30648" lon="-1.07559">
        <ele>70</ele>
        <time>2024-05-14T18:03:43Z</time>
      </trkpt>
      <trkpt lat="47.30651" lon="-1.07561">
        <ele>70</ele>
        <time>2024-05-14T18:03:47Z</time>
      </trkpt>
      <trkpt lat="47.30659" lon="-1.0756">
        <ele>70</ele>
        <time>2024-05-14T18:03:58Z</time>
      </trkpt>
      <trkpt lat="47.3067" lon="-1.07566">
        <ele>70</ele>
        <time>2024-05-14T18:04:14Z</time>
      </trkpt>
      <trkpt lat="47.30681" lon="-1.07566">
        <ele>71</ele>
        <time>2024-05-14T18:04:28Z</time>
      </trkpt>
      <trkpt lat="47.30705" lon="-1.0758">
        <ele>72</ele>
        <time>2024-05-14T18:05:03Z</time>
      </trkpt>
      <trkpt lat="47.30717" lon="-1.07593">
        <ele>72</ele>
        <time>2024-05-14T18:05:23Z</time>
      </trkpt>
      <trkpt lat="47.30729" lon="-1.07597">
        <ele>73</ele>
        <time>2024-05-14T18:05:39Z</time>
      </trkpt>
      <trkpt lat="47.30747" lon="-1.07613">
        <ele>74</ele>
        <time>2024-05-14T18:06:07Z</time>
      </trkpt>
      <trkpt lat="47.30776" lon="-1.07625">
        <ele>75</ele>
        <time>2024-05-14T18:06:47Z</time>
      </trkpt>
      <trkpt lat="47.30799" lon="-1.07641">
        <ele>75</ele>
        <time>2024-05-14T18:07:21Z</time>
      </trkpt>
      <trkpt lat="47.3082" lon="-1.07648">
        <ele>74</ele>
        <time>2024-05-14T18:07:50Z</time>
      </trkpt>
      <trkpt lat="47.30823" lon="-1.07646">
        <ele>74</ele>
        <time>2024-05-14T18:07:54Z</time>
      </trkpt>
      <trkpt lat="47.30827" lon="-1.07647">
        <ele>74</ele>
        <time>2024-05-14T18:08:00Z</time>
      </trkpt>
      <trkpt lat="47.30837" lon="-1.07652">
        <ele>74</ele>
        <time>2024-05-14T18:08:14Z</time>
      </trkpt>
      <trkpt lat="47.30858" lon="-1.07655">
        <ele>75</ele>
        <time>2024-05-14T18:08:42Z</time>
      </trkpt>
      <trkpt lat="47.30864" lon="-1.0765">
        <ele>75</ele>
        <time>2024-05-14T18:08:51Z</time>
      </trkpt>
      <trkpt lat="47.30876" lon="-1.07626">
        <ele>76</ele>
        <time>2024-05-14T18:09:18Z</time>
      </trkpt>
      <trkpt lat="47.30887" lon="-1.07626">
        <ele>77</ele>
        <time>2024-05-14T18:09:33Z</time>
      </trkpt>
      <trkpt lat="47.30921" lon="-1.0764">
        <ele>77</ele>
        <time>2024-05-14T18:10:20Z</time>
      </trkpt>
      <trkpt lat="47.30934" lon="-1.07651">
        <ele>78</ele>
        <time>2024-05-14T18:10:40Z</time>
      </trkpt>
      <trkpt lat="47.30943" lon="-1.07651">
        <ele>78</ele>
        <time>2024-05-14T18:10:52Z</time>
      </trkpt>
      <trkpt lat="47.30956" lon="-1.07658">
        <ele>79</ele>
        <time>2024-05-14T18:11:11Z</time>
      </trkpt>
      <trkpt lat="47.30962" lon="-1.07668">
        <ele>79</ele>
        <time>2024-05-14T18:11:23Z</time>
      </trkpt>
      <trkpt lat="47.30964" lon="-1.0769">
        <ele>79</ele>
        <time>2024-05-14T18:11:43Z</time>
      </trkpt>
      <trkpt lat="47.30967" lon="-1.07698">
        <ele>79</ele>
        <time>2024-05-14T18:11:51Z</time>
      </trkpt>
      <trkpt lat="47.30959" lon="-1.07706">
        <ele>79</ele>
        <time>2024-05-14T18:12:04Z</time>
      </trkpt>
      <trkpt lat="47.30962" lon="-1.07714">
        <ele>79</ele>
        <time>2024-05-14T18:12:12Z</time>
      </trkpt>
      <trkpt lat="47.30932" lon="-1.07716">
        <ele>78</ele>
        <time>2024-05-14T18:12:52Z</time>
      </trkpt>
      <trkpt lat="47.30902" lon="-1.07731">
        <ele>78</ele>
        <time>2024-05-14T18:13:35Z</time>
      </trkpt>
      <trkpt lat="47.30854" lon="-1.07741">
        <ele>78</ele>
        <time>2024-05-14T18:14:39Z</time>
      </trkpt>
      <trkpt lat="47.30821" lon="-1.07751">
        <ele>79</ele>
        <time>2024-05-14T18:15:24Z</time>
      </trkpt>
      <trkpt lat="47.30792" lon="-1.07754">
        <ele>80</ele>
        <time>2024-05-14T18:16:03Z</time>
      </trkpt>
      <trkpt lat="47.30754" lon="-1.07747">
        <ele>81</ele>
        <time>2024-05-14T18:16:54Z</time>
      </trkpt>
      <trkpt lat="47.30716" lon="-1.07731">
        <ele>80</ele>
        <time>2024-05-14T18:17:47Z</time>
      </trkpt>
      <trkpt lat="47.3067" lon="-1.07718">
        <ele>79</ele>
        <time>2024-05-14T18:18:49Z</time>
      </trkpt>
      <trkpt lat="47.30655" lon="-1.07709">
        <ele>79</ele>
        <time>2024-05-14T18:19:11Z</time>
      </trkpt>
      <trkpt lat="47.30626" lon="-1.07698">
        <ele>78</ele>
        <time>2024-05-14T18:19:51Z</time>
      </trkpt>
      <trkpt lat="47.30606" lon="-1.07693">
        <ele>78</ele>
        <time>2024-05-14T18:20:18Z</time>
      </trkpt>
      <trkpt lat="47.30578" lon="-1.07693">
        <ele>78</ele>
        <time>2024-05-14T18:20:55Z</time>
      </trkpt>
      <trkpt lat="47.3056" lon="-1.077">
        <ele>79</ele>
        <time>2024-05-14T18:21:20Z</time>
      </trkpt>
      <trkpt lat="47.30543" lon="-1.07704">
        <ele>79</ele>
        <time>2024-05-14T18:21:43Z</time>
      </trkpt>
      <trkpt lat="47.30537" lon="-1.07703">
        <ele>79</ele>
        <time>2024-05-14T18:21:51Z</time>
      </trkpt>
      <trkpt lat="47.30503" lon="-1.07712">
        <ele>80</ele>
        <time>2024-05-14T18:22:37Z</time>
      </trkpt>
      <trkpt lat="47.30471" lon="-1.07728">
        <ele>80</ele>
        <time>2024-05-14T18:23:22Z</time>
      </trkpt>
      <trkpt lat="47.30454" lon="-1.07733">
        <ele>80</ele>
        <time>2024-05-14T18:23:45Z</time>
      </trkpt>
      <trkpt lat="47.30402" lon="-1.07744">
        <ele>80</ele>
        <time>2024-05-14T18:24:56Z</time>
      </trkpt>
      <trkpt lat="47.30379" lon="-1.07743">
        <ele>79</ele>
        <time>2024-05-14T18:25:26Z</time>
      </trkpt>
      <trkpt lat="47.30344" lon="-1.07753">
        <ele>78</ele>
        <time>2024-05-14T18:26:14Z</time>
      </trkpt>
      <trkpt lat="47.30331" lon="-1.07761">
        <ele>78</ele>
        <time>2024-05-14T18:26:33Z</time>
      </trkpt>
      <trkpt lat="47.30297" lon="-1.07772">
        <ele>78</ele>
        <time>2024-05-14T18:27:19Z</time>
      </trkpt>
      <trkpt lat="47.30269" lon="-1.07776">
        <ele>78</ele>
        <time>2024-05-14T18:27:57Z</time>
      </trkpt>
      <trkpt lat="47.30263" lon="-1.0778">
        <ele>78</ele>
        <time>2024-05-14T18:28:05Z</time>
      </trkpt>
      <trkpt lat="47.30251" lon="-1.07783">
        <ele>78</ele>
        <time>2024-05-14T18:28:22Z</time>
      </trkpt>
      <trkpt lat="47.30227" lon="-1.07786">
        <ele>78</ele>
        <time>2024-05-14T18:28:54Z</time>
      </trkpt>
      <trkpt lat="47.30204" lon="-1.07779">
        <ele>77</ele>
        <time>2024-05-14T18:29:25Z</time>
      </trkpt>
      <trkpt lat="47.30206" lon="-1.07778">
        <ele>77</ele>
        <time>2024-05-14T18:29:28Z</time>
      </trkpt>
      <trkpt lat="47.30162" lon="-1.07777">
        <ele>77</ele>
        <time>2024-05-14T18:30:27Z</time>
      </trkpt>
      <trkpt lat="47.30097" lon="-1.07769">
        <ele>76</ele>
        <time>2024-05-14T18:31:54Z</time>
      </trkpt>
      <trkpt lat="47.30087" lon="-1.07763">
        <ele>75</ele>
        <time>2024-05-14T18:32:08Z</time>
      </trkpt>
      <trkpt lat="47.30091" lon="-1.0776">
        <ele>75</ele>
        <time>2024-05-14T18:32:14Z</time>
      </trkpt>
      <trkpt lat="47.30092" lon="-1.07762">
        <ele>75</ele>
        <time>2024-05-14T18:32:16Z</time>
      </trkpt>
      <trkpt lat="47.30037" lon="-1.0775">
        <ele>75</ele>
        <time>2024-05-14T18:33:31Z</time>
      </trkpt>
      <trkpt lat="47.30029" lon="-1.07749">
        <ele>75</ele>
        <time>2024-05-14T18:33:41Z</time>
      </trkpt>
      <trkpt lat="47.30022" lon="-1.07752">
        <ele>75</ele>
        <time>2024-05-14T18:33:51Z</time>
      </trkpt>
      <trkpt lat="47.30013" lon="-1.07752">
        <ele>75</ele>
        <time>2024-05-14T18:34:03Z</time>
      </trkpt>
      <trkpt lat="47.30008" lon="-1.07762">
        <ele>75</ele>
        <time>2024-05-14T18:34:14Z</time>
      </trkpt>
      <trkpt lat="47.3001" lon="-1.07784">
        <ele>75</ele>
        <time>2024-05-14T18:34:34Z</time>
      </trkpt>
      <trkpt lat="47.30053" lon="-1.07885">
        <ele>76</ele>
        <time>2024-05-14T18:36:22Z</time>
      </trkpt>
      <trkpt lat="47.30052" lon="-1.07902">
        <ele>76</ele>
        <time>2024-05-14T18:36:38Z</time>
      </trkpt>
      <trkpt lat="47.30056" lon="-1.07914">
        <ele>76</ele>
        <time>2024-05-14T18:36:50Z</time>
      </trkpt>
      <trkpt lat="47.30076" lon="-1.07926">
        <ele>77</ele>
        <time>2024-05-14T18:37:19Z</time>
      </trkpt>
      <trkpt lat="47.30093" lon="-1.07932">
        <ele>77</ele>
        <time>2024-05-14T18:37:42Z</time>
      </trkpt>
      <trkpt lat="47.30105" lon="-1.07943">
        <ele>77</ele>
        <time>2024-05-14T18:38:01Z</time>
      </trkpt>
      <trkpt lat="47.30106" lon="-1.07957">
        <ele>77</ele>
        <time>2024-05-14T18:38:14Z</time>
      </trkpt>
      <trkpt lat="47.30101" lon="-1.07982">
        <ele>77</ele>
        <time>2024-05-14T18:38:37Z</time>
      </trkpt>
      <trkpt lat="47.30103" lon="-1.07991">
        <ele>77</ele>
        <time>2024-05-14T18:38:46Z</time>
      </trkpt>
      <trkpt lat="47.30102" lon="-1.08003">
        <ele>77</ele>
        <time>2024-05-14T18:38:57Z</time>
      </trkpt>
      <trkpt lat="47.30077" lon="-1.07959">
        <ele>77</ele>
        <time>2024-05-14T18:39:49Z</time>
      </trkpt>
    </trkseg>
  </trk>
</gpx>